createdAt,value
2018-12-16T00:00:02.778Z,-0.25
2018-12-16T00:01:03.075Z,-0.25
2018-12-16T00:02:02.418Z,-0.25
2018-12-16T00:03:02.684Z,-0.25
2018-12-16T00:04:03.093Z,-0.25
2018-12-16T00:05:02.369Z,-0.25
2018-12-16T00:06:02.682Z,-0.25
2018-12-16T00:07:03.002Z,-0.25
2018-12-16T00:08:02.293Z,-0.25
2018-12-16T00:09:02.732Z,-0.25
2018-12-16T00:10:03.064Z,-0.25
2018-12-16T00:11:02.378Z,-0.25
2018-12-16T00:12:02.690Z,-0.25
2018-12-16T00:13:02.989Z,-0.25
2018-12-16T00:14:02.313Z,-0.25
2018-12-16T00:15:02.605Z,-0.25
2018-12-16T00:16:02.963Z,-0.25
2018-12-16T00:17:02.379Z,-0.25
2018-12-16T00:18:02.673Z,-0.25
2018-12-16T00:19:02.990Z,-0.25
2018-12-16T00:20:02.278Z,-0.18
2018-12-16T00:21:02.614Z,-0.25
2018-12-16T00:22:03.009Z,-0.25
2018-12-16T00:23:03.153Z,-0.25
2018-12-16T00:24:02.434Z,-0.25
2018-12-16T00:25:02.770Z,-0.25
2018-12-16T00:26:03.102Z,-0.25
2018-12-16T00:27:02.408Z,-0.25
2018-12-16T00:28:02.763Z,-0.25
2018-12-16T00:29:03.096Z,-0.25
2018-12-16T00:30:02.352Z,-0.31
2018-12-16T00:31:02.668Z,-0.25
2018-12-16T00:32:03.063Z,-0.25
2018-12-16T00:33:02.412Z,-0.31
2018-12-16T00:34:02.757Z,-0.25
2018-12-16T00:35:03.089Z,-0.31
2018-12-16T00:36:02.383Z,-0.31
2018-12-16T00:37:02.684Z,-0.31
2018-12-16T00:38:02.994Z,-0.25
2018-12-16T00:39:02.281Z,-0.25
2018-12-16T00:40:02.688Z,-0.25
2018-12-16T00:41:03.000Z,-0.25
2018-12-16T00:42:02.279Z,-0.31
2018-12-16T00:43:02.608Z,-0.31
2018-12-16T00:44:02.956Z,-0.25
2018-12-16T00:45:02.360Z,-0.31
2018-12-16T00:46:02.736Z,-0.25
2018-12-16T00:47:03.010Z,-0.25
2018-12-16T00:48:02.272Z,-0.25
2018-12-16T00:49:02.596Z,-0.25
2018-12-16T00:50:02.922Z,-0.31
2018-12-16T00:51:03.324Z,-0.31
2018-12-16T00:52:02.594Z,-0.25
2018-12-16T00:53:02.922Z,-0.25
2018-12-16T00:54:03.237Z,-0.25
2018-12-16T00:55:02.530Z,-0.25
2018-12-16T00:56:02.893Z,-0.25
2018-12-16T00:57:03.207Z,-0.25
2018-12-16T00:58:02.572Z,-0.25
2018-12-16T00:59:02.839Z,-0.25
2018-12-16T01:00:03.195Z,-0.25
2018-12-16T01:01:02.516Z,-0.25
2018-12-16T01:02:02.846Z,-0.31
2018-12-16T01:03:03.207Z,-0.31
2018-12-16T01:04:02.540Z,-0.25
2018-12-16T01:05:02.828Z,-0.31
2018-12-16T01:06:03.093Z,-0.31
2018-12-16T01:07:02.354Z,-0.31
2018-12-16T01:08:02.692Z,-0.31
2018-12-16T01:09:03.053Z,-0.31
2018-12-16T01:10:02.362Z,-0.25
2018-12-16T01:11:02.729Z,-0.31
2018-12-16T01:12:03.017Z,-0.31
2018-12-16T01:13:02.274Z,-0.31
2018-12-16T01:14:02.642Z,-0.31
2018-12-16T01:15:03.041Z,-0.31
2018-12-16T01:16:02.352Z,-0.31
2018-12-16T01:17:02.682Z,-0.31
2018-12-16T01:18:03.003Z,-0.31
2018-12-16T01:19:02.287Z,-0.31
2018-12-16T01:20:02.602Z,-0.25
2018-12-16T01:21:03.001Z,-0.31
2018-12-16T01:22:02.272Z,-0.31
2018-12-16T01:23:02.592Z,-0.31
2018-12-16T01:24:02.929Z,-0.31
2018-12-16T01:25:03.233Z,-0.31
2018-12-16T01:26:02.606Z,-0.25
2018-12-16T01:27:03.006Z,-0.25
2018-12-16T01:28:02.281Z,-0.25
2018-12-16T01:29:02.595Z,-0.25
2018-12-16T01:30:02.913Z,-0.31
2018-12-16T01:31:03.245Z,-0.31
2018-12-16T01:32:02.520Z,-0.31
2018-12-16T01:33:02.923Z,-0.25
2018-12-16T01:34:03.251Z,-0.31
2018-12-16T01:35:02.513Z,-0.31
2018-12-16T01:36:02.840Z,-0.31
2018-12-16T01:37:03.166Z,-0.31
2018-12-16T01:38:02.449Z,-0.31
2018-12-16T01:39:02.815Z,-0.31
2018-12-16T01:40:03.152Z,-0.31
2018-12-16T01:41:02.484Z,-0.31
2018-12-16T01:42:02.768Z,-0.31
2018-12-16T01:43:03.076Z,-0.31
2018-12-16T01:44:02.367Z,-0.31
2018-12-16T01:45:02.738Z,-0.31
2018-12-16T01:46:03.000Z,-0.31
2018-12-16T01:47:02.287Z,-0.31
2018-12-16T01:48:02.596Z,-0.31
2018-12-16T01:49:02.829Z,-0.31
2018-12-16T01:50:03.135Z,-0.31
2018-12-16T01:51:02.448Z,-0.25
2018-12-16T01:52:02.755Z,-0.25
2018-12-16T01:53:03.089Z,-0.31
2018-12-16T01:54:02.357Z,-0.25
2018-12-16T01:55:02.690Z,-0.25
2018-12-16T01:56:03.053Z,-0.31
2018-12-16T01:57:02.371Z,-0.31
2018-12-16T01:58:02.687Z,-0.31
2018-12-16T01:59:02.998Z,-0.25
2018-12-16T02:00:02.276Z,-0.25
2018-12-16T02:01:02.594Z,-0.25
2018-12-16T02:02:02.924Z,-0.25
2018-12-16T02:03:03.239Z,-0.37
2018-12-16T02:04:02.505Z,-0.31
2018-12-16T02:05:02.749Z,-0.31
2018-12-16T02:06:03.866Z,-0.31
2018-12-16T02:07:03.214Z,-0.31
2018-12-16T02:08:02.770Z,-0.37
2018-12-16T02:09:03.267Z,-0.37
2018-12-16T02:10:02.725Z,-0.31
2018-12-16T02:11:03.270Z,-0.31
2018-12-16T02:12:02.667Z,-0.31
2018-12-16T02:13:03.183Z,-0.31
2018-12-16T02:14:02.696Z,-0.31
2018-12-16T02:15:03.025Z,-0.31
2018-12-16T02:16:02.364Z,-0.31
2018-12-16T02:17:02.683Z,-0.31
2018-12-16T02:18:03.051Z,-0.31
2018-12-16T02:19:02.362Z,-0.31
2018-12-16T02:20:02.721Z,-0.31
2018-12-16T02:21:03.035Z,-0.31
2018-12-16T02:22:02.359Z,-0.37
2018-12-16T02:23:02.688Z,-0.37
2018-12-16T02:24:03.057Z,-0.37
2018-12-16T02:25:02.348Z,-0.37
2018-12-16T02:26:02.653Z,-0.37
2018-12-16T02:27:02.923Z,-0.37
2018-12-16T02:28:03.229Z,-0.37
2018-12-16T02:29:02.582Z,-0.37
2018-12-16T02:30:02.896Z,-0.37
2018-12-16T02:31:03.248Z,-0.31
2018-12-16T02:32:02.520Z,-0.37
2018-12-16T02:33:02.850Z,-0.37
2018-12-16T02:34:03.171Z,-0.31
2018-12-16T02:35:02.487Z,-0.31
2018-12-16T02:36:02.760Z,-0.31
2018-12-16T02:37:03.071Z,-0.37
2018-12-16T02:38:02.380Z,-0.37
2018-12-16T02:39:02.680Z,-0.37
2018-12-16T02:40:03.051Z,-0.37
2018-12-16T02:41:02.375Z,-0.37
2018-12-16T02:42:02.796Z,-0.37
2018-12-16T02:43:03.074Z,-0.37
2018-12-16T02:44:02.356Z,-0.37
2018-12-16T02:45:02.686Z,-0.37
2018-12-16T02:46:03.056Z,-0.37
2018-12-16T02:47:02.355Z,-0.37
2018-12-16T02:48:02.589Z,-0.37
2018-12-16T02:49:02.913Z,-0.43
2018-12-16T02:50:03.243Z,-0.43
2018-12-16T02:51:02.536Z,-0.37
2018-12-16T02:52:02.936Z,-0.37
2018-12-16T02:53:04.673Z,-0.37
2018-12-16T02:54:03.148Z,-0.43
2018-12-16T02:55:02.442Z,-0.37
2018-12-16T02:56:02.747Z,-0.37
2018-12-16T02:57:03.083Z,-0.37
2018-12-16T02:58:03.332Z,-0.37
2018-12-16T02:59:02.592Z,-0.37
2018-12-16T03:00:02.910Z,-0.37
2018-12-16T03:01:03.155Z,-0.37
2018-12-16T03:02:02.439Z,-0.37
2018-12-16T03:03:02.770Z,-0.43
2018-12-16T03:04:03.187Z,-0.37
2018-12-16T03:05:02.512Z,-0.37
2018-12-16T03:06:02.756Z,-0.43
2018-12-16T03:07:03.075Z,-0.37
2018-12-16T03:08:02.349Z,-0.37
2018-12-16T03:09:02.727Z,-0.37
2018-12-16T03:10:03.095Z,-0.37
2018-12-16T03:11:02.353Z,-0.43
2018-12-16T03:12:02.683Z,-0.43
2018-12-16T03:13:03.082Z,-0.43
2018-12-16T03:14:02.355Z,-0.43
2018-12-16T03:15:02.698Z,-0.37
2018-12-16T03:16:03.058Z,-0.43
2018-12-16T03:17:02.356Z,-0.37
2018-12-16T03:18:02.678Z,-0.43
2018-12-16T03:19:03.006Z,-0.43
2018-12-16T03:20:02.273Z,-0.43
2018-12-16T03:21:02.519Z,-0.43
2018-12-16T03:22:02.883Z,-0.43
2018-12-16T03:23:03.168Z,-0.43
2018-12-16T03:24:02.438Z,-0.43
2018-12-16T03:25:02.762Z,-0.43
2018-12-16T03:26:03.092Z,-0.43
2018-12-16T03:27:02.492Z,-0.43
2018-12-16T03:28:02.833Z,-0.43
2018-12-16T03:29:03.210Z,-0.43
2018-12-16T03:30:02.525Z,-0.43
2018-12-16T03:31:02.846Z,-0.43
2018-12-16T03:32:03.262Z,-0.43
2018-12-16T03:33:02.528Z,-0.43
2018-12-16T03:34:02.802Z,-0.43
2018-12-16T03:35:03.063Z,-0.43
2018-12-16T03:36:02.348Z,-0.43
2018-12-16T03:37:02.674Z,-0.43
2018-12-16T03:38:03.019Z,-0.43
2018-12-16T03:39:02.362Z,-0.5
2018-12-16T03:40:02.688Z,-0.43
2018-12-16T03:41:02.992Z,-0.43
2018-12-16T03:42:02.288Z,-0.37
2018-12-16T03:43:02.636Z,-0.37
2018-12-16T03:44:03.024Z,-0.37
2018-12-16T03:45:02.272Z,-0.43
2018-12-16T03:46:02.651Z,-0.43
2018-12-16T03:47:02.948Z,-0.43
2018-12-16T03:48:03.234Z,-0.37
2018-12-16T03:49:02.527Z,-0.43
2018-12-16T03:50:02.929Z,-0.37
2018-12-16T03:51:03.243Z,-0.43
2018-12-16T03:52:02.519Z,-0.43
2018-12-16T03:53:02.834Z,-0.43
2018-12-16T03:54:03.161Z,-0.37
2018-12-16T03:55:02.556Z,-0.37
2018-12-16T03:56:02.835Z,-0.37
2018-12-16T03:57:03.077Z,-0.37
2018-12-16T03:58:02.359Z,-0.37
2018-12-16T03:59:02.740Z,-0.37
2018-12-16T04:00:03.069Z,-0.37
2018-12-16T04:01:02.409Z,-0.37
2018-12-16T04:02:02.692Z,-0.37
2018-12-16T04:03:03.008Z,-0.37
2018-12-16T04:04:02.269Z,-0.37
2018-12-16T04:05:02.668Z,-0.37
2018-12-16T04:06:03.053Z,-0.31
2018-12-16T04:07:02.360Z,-0.37
2018-12-16T04:08:02.679Z,-0.37
2018-12-16T04:09:02.997Z,-0.37
2018-12-16T04:10:02.297Z,-0.37
2018-12-16T04:11:02.601Z,-0.43
2018-12-16T04:12:03.166Z,-0.43
2018-12-16T04:13:02.430Z,-0.43
2018-12-16T04:14:02.737Z,-0.43
2018-12-16T04:15:03.015Z,-0.37
2018-12-16T04:16:02.279Z,-0.43
2018-12-16T04:17:02.606Z,-0.43
2018-12-16T04:18:03.005Z,-0.43
2018-12-16T04:19:02.289Z,-0.43
2018-12-16T04:20:02.610Z,-0.43
2018-12-16T04:21:02.911Z,-0.5
2018-12-16T04:22:03.162Z,-0.5
2018-12-16T04:23:02.499Z,-0.5
2018-12-16T04:24:02.851Z,-0.43
2018-12-16T04:25:03.160Z,-0.43
2018-12-16T04:26:02.439Z,-0.5
2018-12-16T04:27:02.766Z,-0.43
2018-12-16T04:28:03.087Z,-0.43
2018-12-16T04:29:02.411Z,-0.43
2018-12-16T04:30:02.820Z,-0.43
2018-12-16T04:31:03.088Z,-0.43
2018-12-16T04:32:02.348Z,-0.43
2018-12-16T04:33:02.612Z,-0.43
2018-12-16T04:34:02.922Z,-0.37
2018-12-16T04:35:03.333Z,-0.43
2018-12-16T04:36:02.593Z,-0.43
2018-12-16T04:37:02.840Z,-0.43
2018-12-16T04:38:04.033Z,-0.43
2018-12-16T04:39:02.370Z,-0.43
2018-12-16T04:40:02.703Z,-0.43
2018-12-16T04:41:03.042Z,-0.43
2018-12-16T04:42:02.351Z,-0.37
2018-12-16T04:43:02.589Z,-0.43
2018-12-16T04:44:02.886Z,-0.37
2018-12-16T04:45:03.152Z,-0.37
2018-12-16T04:46:02.450Z,-0.37
2018-12-16T04:47:02.815Z,-0.43
2018-12-16T04:48:03.097Z,-0.43
2018-12-16T04:49:02.403Z,-0.43
2018-12-16T04:50:02.696Z,-0.5
2018-12-16T04:51:02.988Z,-0.5
2018-12-16T04:52:02.280Z,-0.5
2018-12-16T04:53:02.681Z,-0.5
2018-12-16T04:54:02.993Z,-0.43
2018-12-16T04:55:02.281Z,-0.5
2018-12-16T04:56:02.612Z,-0.43
2018-12-16T04:57:02.908Z,-0.43
2018-12-16T04:58:03.249Z,-0.5
2018-12-16T04:59:02.530Z,-0.43
2018-12-16T05:00:02.892Z,-0.43
2018-12-16T05:01:03.161Z,-0.43
2018-12-16T05:02:02.426Z,-0.43
2018-12-16T05:03:02.763Z,-0.43
2018-12-16T05:04:03.135Z,-0.43
2018-12-16T05:05:02.439Z,-0.43
2018-12-16T05:06:02.764Z,-0.43
2018-12-16T05:07:03.079Z,-0.43
2018-12-16T05:08:02.386Z,-0.43
2018-12-16T05:09:02.718Z,-0.43
2018-12-16T05:10:03.048Z,-0.43
2018-12-16T05:11:02.376Z,-0.43
2018-12-16T05:12:02.671Z,-0.43
2018-12-16T05:13:02.992Z,-0.43
2018-12-16T05:14:02.304Z,-0.43
2018-12-16T05:15:02.652Z,-0.43
2018-12-16T05:16:02.983Z,-0.43
2018-12-16T05:17:02.294Z,-0.43
2018-12-16T05:18:02.597Z,-0.43
2018-12-16T05:19:03.799Z,-0.43
2018-12-16T05:20:03.079Z,-0.37
2018-12-16T05:21:02.366Z,-0.43
2018-12-16T05:22:02.731Z,-0.43
2018-12-16T05:23:03.002Z,-0.37
2018-12-16T05:24:02.272Z,-0.37
2018-12-16T05:25:02.610Z,-0.37
2018-12-16T05:26:03.090Z,-0.37
2018-12-16T05:27:02.407Z,-0.37
2018-12-16T05:28:02.681Z,-0.37
2018-12-16T05:29:03.018Z,-0.37
2018-12-16T05:30:02.329Z,-0.43
2018-12-16T05:31:02.603Z,-0.37
2018-12-16T05:32:03.005Z,-0.37
2018-12-16T05:33:03.164Z,-0.37
2018-12-16T05:34:02.439Z,-0.37
2018-12-16T05:35:02.761Z,-0.37
2018-12-16T05:36:03.073Z,-0.43
2018-12-16T05:37:02.367Z,-0.37
2018-12-16T05:38:02.734Z,-0.37
2018-12-16T05:39:02.995Z,-0.43
2018-12-16T05:40:02.299Z,-0.43
2018-12-16T05:41:02.597Z,-0.37
2018-12-16T05:42:02.840Z,-0.43
2018-12-16T05:43:03.244Z,-0.43
2018-12-16T05:44:02.524Z,-0.43
2018-12-16T05:45:02.966Z,-0.43
2018-12-16T05:46:02.273Z,-0.43
2018-12-16T05:47:02.597Z,-0.43
2018-12-16T05:48:02.527Z,-0.43
2018-12-16T05:49:02.924Z,-0.43
2018-12-16T05:50:03.242Z,-0.43
2018-12-16T05:51:02.513Z,-0.43
2018-12-16T05:52:02.844Z,-0.43
2018-12-16T05:53:03.156Z,-0.43
2018-12-16T05:54:02.443Z,-0.43
2018-12-16T05:55:02.845Z,-0.43
2018-12-16T05:56:03.178Z,-0.43
2018-12-16T05:57:02.441Z,-0.43
2018-12-16T05:58:02.753Z,-0.43
2018-12-16T05:59:03.078Z,-0.43
2018-12-16T06:00:02.341Z,-0.5
2018-12-16T06:01:02.327Z,-0.5
2018-12-16T06:02:02.591Z,-0.43
2018-12-16T06:03:02.916Z,-0.43
2018-12-16T06:04:03.220Z,-0.43
2018-12-16T06:05:02.518Z,-0.43
2018-12-16T06:06:02.889Z,-0.43
2018-12-16T06:07:03.155Z,-0.43
2018-12-16T06:08:02.442Z,-0.43
2018-12-16T06:09:03.645Z,-0.37
2018-12-16T06:10:02.924Z,-0.37
2018-12-16T06:11:03.304Z,-0.43
2018-12-16T06:12:03.487Z,-0.37
2018-12-16T06:13:02.765Z,-0.37
2018-12-16T06:14:03.079Z,-0.31
2018-12-16T06:15:02.368Z,-0.37
2018-12-16T06:16:02.732Z,-0.37
2018-12-16T06:17:03.056Z,-0.31
2018-12-16T06:18:02.356Z,-0.31
2018-12-16T06:19:02.677Z,-0.31
2018-12-16T06:20:03.006Z,-0.31
2018-12-16T06:21:02.279Z,-0.31
2018-12-16T06:22:02.600Z,-0.31
2018-12-16T06:23:02.980Z,-0.31
2018-12-16T06:24:02.270Z,-0.37
2018-12-16T06:25:02.586Z,-0.37
2018-12-16T06:26:02.920Z,-0.37
2018-12-16T06:27:03.236Z,-0.37
2018-12-16T06:28:02.516Z,-0.37
2018-12-16T06:29:02.891Z,-0.37
2018-12-16T06:30:03.159Z,-0.37
2018-12-16T06:31:02.483Z,-0.37
2018-12-16T06:32:02.817Z,-0.37
2018-12-16T06:33:03.080Z,-0.43
2018-12-16T06:34:02.420Z,-0.43
2018-12-16T06:35:02.798Z,-0.43
2018-12-16T06:36:03.080Z,-0.43
2018-12-16T06:37:02.369Z,-0.43
2018-12-16T06:38:02.695Z,-0.43
2018-12-16T06:39:03.001Z,-0.43
2018-12-16T06:40:02.278Z,-0.43
2018-12-16T06:41:02.664Z,-0.37
2018-12-16T06:42:02.934Z,-0.43
2018-12-16T06:43:03.252Z,-0.43
2018-12-16T06:44:02.537Z,-0.43
2018-12-16T06:45:02.840Z,-0.43
2018-12-16T06:46:03.205Z,-0.43
2018-12-16T06:47:03.530Z,-0.37
2018-12-16T06:48:02.888Z,-0.43
2018-12-16T06:49:03.236Z,-0.43
2018-12-16T06:50:02.516Z,-0.43
2018-12-16T06:51:02.846Z,-0.43
2018-12-16T06:52:03.209Z,-0.43
2018-12-16T06:53:02.547Z,-0.43
2018-12-16T06:54:02.962Z,-0.43
2018-12-16T06:55:02.377Z,-0.43
2018-12-16T06:56:06.575Z,-0.43
2018-12-16T06:57:03.137Z,-0.43
2018-12-16T06:58:02.443Z,-0.43
2018-12-16T06:59:02.761Z,-0.43
2018-12-16T07:00:03.098Z,-0.43
2018-12-16T07:01:02.351Z,-0.43
2018-12-16T07:02:02.686Z,-0.43
2018-12-16T07:03:03.079Z,-0.43
2018-12-16T07:04:03.220Z,-0.43
2018-12-16T07:05:02.514Z,-0.43
2018-12-16T07:06:02.752Z,-0.43
2018-12-16T07:07:03.087Z,-0.37
2018-12-16T07:08:02.419Z,-0.43
2018-12-16T07:09:02.923Z,-0.43
2018-12-16T07:10:03.229Z,-0.43
2018-12-16T07:11:02.517Z,-0.43
2018-12-16T07:12:04.592Z,-0.37
2018-12-16T07:13:02.915Z,-0.43
2018-12-16T07:14:03.248Z,-0.43
2018-12-16T07:15:02.573Z,-0.43
2018-12-16T07:16:02.839Z,-0.43
2018-12-16T07:17:03.184Z,-0.37
2018-12-16T07:18:02.440Z,-0.37
2018-12-16T07:19:02.849Z,-0.43
2018-12-16T07:20:03.207Z,-0.43
2018-12-16T07:21:02.508Z,-0.43
2018-12-16T07:22:02.829Z,-0.43
2018-12-16T07:23:03.086Z,-0.43
2018-12-16T07:24:08.974Z,-0.43
2018-12-16T07:25:02.441Z,-0.43
2018-12-16T07:26:02.844Z,-0.43
2018-12-16T07:27:03.193Z,-0.43
2018-12-16T07:28:02.508Z,-0.43
2018-12-16T07:29:03.707Z,-0.43
2018-12-16T07:30:03.001Z,-0.43
2018-12-16T07:31:02.364Z,-0.5
2018-12-16T07:32:02.813Z,-0.5
2018-12-16T07:33:04.840Z,-0.43
2018-12-16T07:34:04.119Z,-0.43
2018-12-16T07:35:02.458Z,-0.43
2018-12-16T07:36:02.767Z,-0.43
2018-12-16T07:37:03.144Z,-0.43
2018-12-16T07:38:02.437Z,-0.37
2018-12-16T07:39:02.770Z,-0.37
2018-12-16T07:40:03.099Z,-0.37
2018-12-16T07:41:02.384Z,-0.37
2018-12-16T07:42:02.698Z,-0.37
2018-12-16T07:43:03.104Z,-0.37
2018-12-16T07:44:02.473Z,-0.37
2018-12-16T07:45:02.771Z,-0.37
2018-12-16T07:46:03.079Z,-0.37
2018-12-16T07:47:02.367Z,-0.37
2018-12-16T07:48:02.680Z,-0.37
2018-12-16T07:49:03.087Z,-0.37
2018-12-16T07:50:02.439Z,-0.37
2018-12-16T07:51:02.808Z,-0.37
2018-12-16T07:52:03.071Z,-0.37
2018-12-16T07:53:02.407Z,-0.37
2018-12-16T07:54:02.721Z,-0.31
2018-12-16T07:55:03.081Z,-0.31
2018-12-16T07:56:02.357Z,-0.37
2018-12-16T07:57:02.688Z,-0.31
2018-12-16T07:58:03.031Z,-0.31
2018-12-16T07:59:02.276Z,-0.31
2018-12-16T08:00:02.613Z,-0.37
2018-12-16T08:01:03.024Z,-0.31
2018-12-16T08:02:02.289Z,-0.25
2018-12-16T08:03:02.652Z,-0.31
2018-12-16T08:04:02.916Z,-0.31
2018-12-16T08:05:03.306Z,-0.31
2018-12-16T08:06:02.597Z,-0.31
2018-12-16T08:07:02.947Z,-0.25
2018-12-16T08:08:03.237Z,-0.25
2018-12-16T08:09:02.531Z,-0.31
2018-12-16T08:10:02.831Z,-0.31
2018-12-16T08:11:03.069Z,-0.25
2018-12-16T08:12:02.446Z,-0.31
2018-12-16T08:13:02.767Z,-0.31
2018-12-16T08:14:03.084Z,-0.37
2018-12-16T08:15:02.360Z,-0.37
2018-12-16T08:16:02.681Z,-0.31
2018-12-16T08:17:03.076Z,-0.31
2018-12-16T08:18:02.351Z,-0.37
2018-12-16T08:19:06.915Z,-0.37
2018-12-16T08:20:02.450Z,-0.31
2018-12-16T08:21:02.794Z,-0.31
2018-12-16T08:22:03.085Z,-0.31
2018-12-16T08:23:02.451Z,-0.31
2018-12-16T08:24:02.746Z,-0.31
2018-12-16T08:25:03.074Z,-0.31
2018-12-16T08:26:02.366Z,-0.31
2018-12-16T08:27:02.671Z,-0.31
2018-12-16T08:28:02.985Z,-0.25
2018-12-16T08:29:02.444Z,-0.31
2018-12-16T08:30:02.850Z,-0.31
2018-12-16T08:31:03.151Z,-0.25
2018-12-16T08:32:03.324Z,-0.25
2018-12-16T08:33:02.608Z,-0.31
2018-12-16T08:34:02.964Z,-0.31
2018-12-16T08:35:02.286Z,-0.25
2018-12-16T08:36:02.682Z,-0.25
2018-12-16T08:37:03.058Z,-0.25
2018-12-16T08:38:02.371Z,-0.25
2018-12-16T08:39:02.682Z,-0.18
2018-12-16T08:40:03.046Z,-0.25
2018-12-16T08:41:02.356Z,-0.25
2018-12-16T08:42:02.677Z,-0.25
2018-12-16T08:43:03.002Z,-0.25
2018-12-16T08:44:02.288Z,-0.25
2018-12-16T08:45:02.646Z,-0.25
2018-12-16T08:46:03.017Z,-0.18
2018-12-16T08:47:02.294Z,-0.18
2018-12-16T08:48:02.588Z,-0.25
2018-12-16T08:49:02.831Z,-0.25
2018-12-16T08:50:03.075Z,-0.25
2018-12-16T08:51:02.416Z,-0.18
2018-12-16T08:52:02.717Z,-0.25
2018-12-16T08:53:03.002Z,-0.25
2018-12-16T08:54:02.276Z,-0.25
2018-12-16T08:55:02.631Z,-0.25
2018-12-16T08:56:02.954Z,-0.25
2018-12-16T08:57:03.295Z,-0.18
2018-12-16T08:58:02.610Z,-0.18
2018-12-16T08:59:02.920Z,-0.25
2018-12-16T09:00:03.240Z,-0.18
2018-12-16T09:01:02.510Z,-0.18
2018-12-16T09:02:02.763Z,-0.18
2018-12-16T09:03:03.165Z,-0.18
2018-12-16T09:04:02.434Z,-0.18
2018-12-16T09:05:02.678Z,-0.18
2018-12-16T09:06:03.005Z,-0.18
2018-12-16T09:07:02.287Z,-0.18
2018-12-16T09:08:02.653Z,-0.18
2018-12-16T09:09:02.981Z,-0.18
2018-12-16T09:10:02.269Z,-0.18
2018-12-16T09:11:02.602Z,-0.18
2018-12-16T09:12:02.914Z,-0.18
2018-12-16T09:13:03.242Z,-0.12
2018-12-16T09:14:02.573Z,-0.12
2018-12-16T09:15:02.882Z,-0.12
2018-12-16T09:16:03.157Z,-0.12
2018-12-16T09:17:02.441Z,-0.12
2018-12-16T09:18:02.805Z,-0.12
2018-12-16T09:19:03.085Z,-0.18
2018-12-16T09:20:02.496Z,-0.12
2018-12-16T09:21:02.771Z,-0.18
2018-12-16T09:22:03.102Z,-0.12
2018-12-16T09:23:02.449Z,-0.12
2018-12-16T09:24:02.809Z,-0.12
2018-12-16T09:25:03.175Z,-0.12
2018-12-16T09:26:02.440Z,-0.06
2018-12-16T09:27:02.782Z,-0.06
2018-12-16T09:28:03.091Z,-0.06
2018-12-16T09:29:02.349Z,-0.06
2018-12-16T09:30:02.597Z,-0.06
2018-12-16T09:31:02.972Z,-0.06
2018-12-16T09:32:02.868Z,-0.06
2018-12-16T09:33:02.278Z,-0.12
2018-12-16T09:34:02.608Z,-0.06
2018-12-16T09:35:02.908Z,-0.12
2018-12-16T09:36:03.215Z,-0.06
2018-12-16T09:37:02.571Z,-0.06
2018-12-16T09:38:02.837Z,0
2018-12-16T09:39:03.249Z,0
2018-12-16T09:40:02.516Z,0
2018-12-16T09:41:02.892Z,0
2018-12-16T09:42:03.362Z,0
2018-12-16T09:43:02.676Z,0
2018-12-16T09:44:03.011Z,0
2018-12-16T09:45:02.497Z,0
2018-12-16T09:46:03.718Z,0
2018-12-16T09:47:03.087Z,0
2018-12-16T09:48:04.193Z,0
2018-12-16T09:49:02.543Z,0
2018-12-16T09:50:02.853Z,0
2018-12-16T09:51:03.153Z,0.06
2018-12-16T09:52:02.447Z,0.06
2018-12-16T09:53:02.850Z,0.06
2018-12-16T09:54:03.159Z,0.06
2018-12-16T09:55:02.568Z,0.06
2018-12-16T09:56:02.964Z,0.12
2018-12-16T09:57:02.372Z,0.12
2018-12-16T09:58:02.682Z,0.12
2018-12-16T09:59:03.056Z,0.18
2018-12-16T10:00:02.377Z,0.12
2018-12-16T10:01:02.731Z,0.12
2018-12-16T10:02:03.005Z,0.12
2018-12-16T10:03:02.285Z,0.12
2018-12-16T10:04:02.600Z,0.18
2018-12-16T10:05:02.985Z,0.18
2018-12-16T10:06:02.297Z,0.18
2018-12-16T10:07:03.478Z,0.12
2018-12-16T10:08:02.809Z,0.06
2018-12-16T10:09:03.061Z,0.12
2018-12-16T10:10:02.610Z,0.12
2018-12-16T10:11:03.125Z,0.12
2018-12-16T10:12:02.452Z,0.12
2018-12-16T10:13:02.769Z,0.12
2018-12-16T10:14:03.074Z,0.12
2018-12-16T10:15:02.364Z,0.18
2018-12-16T10:16:02.690Z,0.12
2018-12-16T10:17:03.078Z,0.12
2018-12-16T10:18:02.363Z,0.12
2018-12-16T10:19:02.675Z,0.12
2018-12-16T10:20:03.001Z,0.12
2018-12-16T10:21:02.294Z,0.12
2018-12-16T10:22:02.605Z,0.18
2018-12-16T10:23:02.966Z,0.12
2018-12-16T10:24:02.274Z,0.12
2018-12-16T10:25:02.611Z,0.12
2018-12-16T10:26:02.975Z,0.18
2018-12-16T10:27:02.278Z,0.18
2018-12-16T10:28:02.652Z,0.18
2018-12-16T10:29:02.933Z,0.18
2018-12-16T10:30:03.255Z,0.18
2018-12-16T10:31:02.592Z,0.18
2018-12-16T10:32:02.872Z,0.18
2018-12-16T10:33:03.208Z,0.18
2018-12-16T10:34:03.388Z,0.25
2018-12-16T10:35:02.680Z,0.25
2018-12-16T10:36:03.014Z,0.25
2018-12-16T10:37:02.275Z,0.18
2018-12-16T10:38:02.614Z,0.25
2018-12-16T10:39:03.008Z,0.25
2018-12-16T10:40:02.280Z,0.25
2018-12-16T10:41:02.606Z,0.25
2018-12-16T10:42:02.999Z,0.25
2018-12-16T10:43:02.285Z,0.18
2018-12-16T10:44:02.613Z,0.18
2018-12-16T10:45:03.204Z,0.25
2018-12-16T10:46:02.510Z,0.25
2018-12-16T10:47:02.767Z,0.25
2018-12-16T10:48:03.077Z,0.31
2018-12-16T10:49:04.839Z,0.25
2018-12-16T10:50:02.278Z,0.25
2018-12-16T10:51:02.649Z,0.25
2018-12-16T10:52:02.922Z,0.25
2018-12-16T10:53:03.243Z,0.25
2018-12-16T10:54:02.537Z,0.25
2018-12-16T10:55:02.862Z,0.18
2018-12-16T10:56:04.169Z,0.25
2018-12-16T10:57:02.440Z,0.25
2018-12-16T10:58:02.823Z,0.31
2018-12-16T10:59:03.163Z,0.31
2018-12-16T11:00:02.441Z,0.31
2018-12-16T11:01:02.768Z,0.31
2018-12-16T11:02:03.169Z,0.37
2018-12-16T11:03:02.444Z,0.37
2018-12-16T11:04:02.749Z,0.37
2018-12-16T11:05:03.017Z,0.37
2018-12-16T11:06:02.273Z,0.37
2018-12-16T11:07:02.606Z,0.37
2018-12-16T11:08:03.157Z,0.43
2018-12-16T11:09:02.429Z,0.43
2018-12-16T11:10:02.761Z,0.5
2018-12-16T11:11:03.072Z,0.43
2018-12-16T11:12:02.415Z,0.5
2018-12-16T11:13:02.768Z,0.43
2018-12-16T11:14:03.131Z,0.37
2018-12-16T11:15:02.356Z,0.37
2018-12-16T11:16:02.699Z,0.37
2018-12-16T11:17:02.997Z,0.37
2018-12-16T11:18:02.297Z,0.37
2018-12-16T11:19:02.602Z,0.37
2018-12-16T11:20:02.977Z,0.37
2018-12-16T11:21:02.277Z,0.43
2018-12-16T11:22:02.601Z,0.43
2018-12-16T11:23:02.926Z,0.5
2018-12-16T11:24:03.250Z,0.43
2018-12-16T11:25:05.785Z,0.43
2018-12-16T11:26:02.478Z,0.37
2018-12-16T11:27:02.793Z,0.5
2018-12-16T11:28:03.208Z,0.56
2018-12-16T11:29:02.594Z,0.62
2018-12-16T11:30:02.932Z,0.62
2018-12-16T11:31:03.407Z,0.62
2018-12-16T11:32:02.665Z,0.62
2018-12-16T11:33:03.006Z,0.62
2018-12-16T11:34:02.277Z,0.62
2018-12-16T11:35:03.563Z,0.62
2018-12-16T11:36:02.865Z,0.62
2018-12-16T11:37:03.177Z,0.62
2018-12-16T11:38:02.442Z,0.62
2018-12-16T11:39:02.760Z,0.62
2018-12-16T11:40:03.095Z,0.68
2018-12-16T11:41:03.234Z,0.75
2018-12-16T11:42:02.608Z,0.75
2018-12-16T11:43:02.927Z,0.75
2018-12-16T11:44:03.293Z,0.62
2018-12-16T11:45:02.593Z,0.62
2018-12-16T11:46:02.830Z,0.62
2018-12-16T11:47:03.243Z,0.62
2018-12-16T11:48:02.518Z,0.62
2018-12-16T11:49:02.779Z,0.56
2018-12-16T11:50:03.091Z,0.56
2018-12-16T11:51:02.372Z,0.5
2018-12-16T11:52:02.730Z,0.43
2018-12-16T11:53:03.063Z,0.43
2018-12-16T11:54:02.368Z,0.37
2018-12-16T11:55:02.700Z,0.37
2018-12-16T11:56:02.997Z,0.37
2018-12-16T11:57:02.325Z,0.37
2018-12-16T11:58:02.611Z,0.37
2018-12-16T11:59:02.924Z,0.37
2018-12-16T12:00:03.292Z,0.37
2018-12-16T12:01:02.621Z,0.37
2018-12-16T12:02:02.933Z,0.37
2018-12-16T12:03:03.330Z,0.37
2018-12-16T12:04:02.614Z,0.31
2018-12-16T12:05:02.926Z,0.31
2018-12-16T12:06:03.230Z,0.31
2018-12-16T12:07:02.513Z,0.37
2018-12-16T12:08:02.830Z,0.37
2018-12-16T12:09:03.101Z,0.31
2018-12-16T12:10:02.370Z,0.31
2018-12-16T12:11:02.686Z,0.25
2018-12-16T12:12:03.015Z,0.31
2018-12-16T12:13:02.956Z,0.25
2018-12-16T12:14:02.648Z,0.25
2018-12-16T12:15:03.615Z,0.25
2018-12-16T12:16:02.969Z,0.25
2018-12-16T12:17:02.292Z,0.18
2018-12-16T12:18:02.605Z,0.18
2018-12-16T12:19:02.976Z,0.18
2018-12-16T12:20:02.314Z,0.25
2018-12-16T12:21:02.597Z,0.25
2018-12-16T12:22:04.418Z,0.18
2018-12-16T12:23:03.504Z,0.25
2018-12-16T12:24:02.897Z,0.25
2018-12-16T12:25:03.218Z,0.25
2018-12-16T12:26:02.706Z,0.25
2018-12-16T12:27:03.504Z,0.25
2018-12-16T12:28:03.054Z,0.25
2018-12-16T12:29:02.533Z,0.31
2018-12-16T12:30:03.179Z,0.25
2018-12-16T12:31:02.528Z,0.25
2018-12-16T12:32:03.194Z,0.31
2018-12-16T12:33:02.900Z,0.31
2018-12-16T12:34:03.299Z,0.31
2018-12-16T12:35:02.635Z,0.31
2018-12-16T12:36:03.041Z,0.31
2018-12-16T12:37:02.363Z,0.25
2018-12-16T12:38:02.842Z,0.25
2018-12-16T12:39:03.491Z,0.31
2018-12-16T12:40:02.370Z,0.25
2018-12-16T12:41:03.365Z,0.25
2018-12-16T12:42:03.851Z,0.18
2018-12-16T12:43:02.311Z,0.18
2018-12-16T12:44:02.598Z,0.18
2018-12-16T12:45:02.998Z,0.18
2018-12-16T12:46:02.286Z,0.25
2018-12-16T12:47:02.618Z,0.18
2018-12-16T12:48:03.090Z,0.12
2018-12-16T12:49:02.367Z,0.12
2018-12-16T12:50:02.645Z,0.12
2018-12-16T12:51:02.921Z,0.12
2018-12-16T12:52:04.123Z,0.06
2018-12-16T12:53:02.461Z,0.06
2018-12-16T12:54:02.837Z,0.06
2018-12-16T12:55:03.339Z,0.06
2018-12-16T12:56:02.603Z,0.06
2018-12-16T12:57:03.018Z,0.06
2018-12-16T12:58:02.275Z,0
2018-12-16T12:59:02.650Z,-0.06
2018-12-16T13:00:02.992Z,-0.06
2018-12-16T13:01:02.290Z,-0.12